Time;durP1;ratioP1;P1;durP2;ratioP2;P2;SDS_P1;SDS_P2;PMS_P1;PMS_P2;Temp;Humidity;BMP_temperature;BMP_pressure;BME280_temperature;BME280_humidity;BME280_pressure;Samples;Min_cycle;Max_cycle;Signal;HPM_P1;HPM_P2
2023/01/14 00:01:02;;;;;;;14.07;3.72;;;7.00;99.90;;;;;;5063330;28;20037;-40
2023/01/14 00:03:28;;;;;;;13.25;3.35;;;7.00;99.90;;;;;;5059297;28;20040;-41
2023/01/14 00:05:56;;;;;;;10.50;2.90;;;6.90;99.90;;;;;;5048634;28;20045;-40
2023/01/14 00:08:22;;;;;;;13.35;2.92;;;6.90;99.90;;;;;;5053358;28;20452;-40
2023/01/14 00:10:47;;;;;;;11.95;2.75;;;6.90;99.90;;;;;;5051325;28;20037;-40
2023/01/14 00:13:13;;;;;;;14.27;2.88;;;6.90;99.90;;;;;;5054294;28;20478;-41
2023/01/14 00:15:39;;;;;;;14.60;3.35;;;6.90;99.90;;;;;;5054476;28;20044;-42
2023/01/14 00:18:05;;;;;;;20.20;7.38;;;6.90;99.90;;;;;;5060771;28;20033;-42
2023/01/14 00:20:31;;;;;;;15.85;3.40;;;7.00;99.90;;;;;;5067924;28;20069;-42
2023/01/14 00:22:56;;;;;;;17.42;6.05;;;7.00;99.90;;;;;;5053417;28;20063;-40
2023/01/14 00:25:22;;;;;;;14.05;3.58;;;7.10;99.90;;;;;;5056237;28;20068;-42
2023/01/14 00:27:51;;;;;;;17.52;6.93;;;7.10;99.90;;;;;;5056368;28;20055;-40
2023/01/14 00:30:17;;;;;;;15.90;3.42;;;7.10;99.90;;;;;;5054070;28;20029;-42
2023/01/14 00:32:42;;;;;;;12.52;3.45;;;7.10;99.90;;;;;;5045802;28;20544;-40
2023/01/14 00:35:08;;;;;;;11.38;4.18;;;7.20;99.90;;;;;;5040889;28;20033;-40
2023/01/14 00:37:34;;;;;;;13.15;3.45;;;7.20;99.90;;;;;;5049380;28;20068;-42
2023/01/14 00:40:00;;;;;;;15.38;5.22;;;7.20;99.90;;;;;;5037010;28;20044;-40
2023/01/14 00:42:25;;;;;;;13.23;5.65;;;7.20;99.90;;;;;;5053694;28;20456;-41
2023/01/14 00:44:51;;;;;;;11.60;4.65;;;7.20;99.90;;;;;;5052394;28;20071;-40
2023/01/14 00:47:17;;;;;;;15.57;4.35;;;7.20;99.90;;;;;;5052864;28;20498;-40
2023/01/14 00:49:43;;;;;;;12.70;3.70;;;7.20;99.90;;;;;;5053260;28;20268;-40
2023/01/14 00:52:09;;;;;;;12.27;3.05;;;7.20;99.90;;;;;;5055776;28;20033;-40
2023/01/14 00:54:35;;;;;;;12.65;3.70;;;7.10;99.90;;;;;;5045999;28;20033;-40
2023/01/14 00:57:00;;;;;;;16.65;3.10;;;7.20;99.90;;;;;;5049122;28;20045;-41
2023/01/14 00:59:26;;;;;;;12.43;2.63;;;7.10;99.90;;;;;;5047855;28;20041;-42
2023/01/14 01:01:54;;;;;;;10.88;3.05;;;7.10;99.90;;;;;;5037343;28;20143;-42
2023/01/14 01:04:20;;;;;;;11.65;3.22;;;7.00;99.90;;;;;;5052117;28;20037;-42
2023/01/14 01:06:46;;;;;;;13.50;3.30;;;7.00;99.90;;;;;;5042549;28;20045;-43
2023/01/14 01:09:12;;;;;;;14.27;3.40;;;7.00;99.90;;;;;;5059545;28;20420;-42
2023/01/14 01:11:38;;;;;;;16.13;6.40;;;6.90;99.90;;;;;;5045019;28;20040;-42
2023/01/14 01:14:03;;;;;;;13.88;5.20;;;6.90;99.90;;;;;;5052211;28;20033;-42
2023/01/14 01:16:29;;;;;;;25.08;7.47;;;6.90;99.90;;;;;;5051273;28;20497;-41
2023/01/14 01:18:56;;;;;;;25.63;10.38;;;6.90;99.90;;;;;;5044368;28;20042;-42
2023/01/14 01:21:24;;;;;;;21.58;5.72;;;6.90;99.90;;;;;;5051533;28;20041;-42
2023/01/14 01:23:50;;;;;;;17.75;6.43;;;6.90;99.90;;;;;;5041299;28;20401;-42
2023/01/14 01:26:25;;;;;;;18.52;4.78;;;7.00;99.90;;;;;;5062471;28;20120;-44
2023/01/14 01:28:54;;;;;;;16.02;4.22;;;7.00;99.90;;;;;;5050392;28;20112;-42
2023/01/14 01:31:21;;;;;;;13.60;4.50;;;7.00;99.90;;;;;;5059436;28;20056;-43
2023/01/14 01:33:47;;;;;;;12.27;3.45;;;7.00;99.90;;;;;;5043596;28;20086;-42
2023/01/14 01:36:17;;;;;;;15.07;3.72;;;7.10;99.90;;;;;;5050703;28;20035;-42
2023/01/14 01:38:44;;;;;;;18.00;5.47;;;7.10;99.90;;;;;;5061773;28;20075;-41
2023/01/14 01:41:19;;;;;;;13.95;4.22;;;7.10;99.90;;;;;;5048974;28;20032;-41
2023/01/14 01:44:08;;;;;;;13.35;3.42;;;7.10;99.90;;;;;;5065214;23;20051;-42
2023/01/14 01:46:35;;;;;;;16.13;3.95;;;7.00;99.90;;;;;;5019104;28;20486;-39
2023/01/14 01:49:07;;;;;;;17.67;4.03;;;7.00;99.90;;;;;;5002901;28;20048;-39
2023/01/14 01:51:40;;;;;;;17.80;7.25;;;7.10;99.90;;;;;;5017065;28;20034;-40
2023/01/14 01:54:06;;;;;;;22.17;5.63;;;7.10;99.90;;;;;;4978467;28;20048;-40
2023/01/14 01:56:36;;;;;;;17.13;8.35;;;7.00;99.90;;;;;;5021947;28;20042;-40
2023/01/14 01:59:06;;;;;;;17.15;4.60;;;7.10;99.90;;;;;;5016886;28;20049;-40
2023/01/14 02:01:32;;;;;;;19.23;7.28;;;7.00;99.90;;;;;;5022791;28;20076;-39
2023/01/14 02:03:59;;;;;;;18.10;6.03;;;7.00;99.90;;;;;;5022791;28;20133;-40
2023/01/14 02:06:25;;;;;;;21.08;4.70;;;7.00;99.90;;;;;;5016664;28;20400;-39
2023/01/14 02:08:53;;;;;;;22.00;6.35;;;7.00;99.90;;;;;;5003056;28;20050;-40
2023/01/14 02:11:31;;;;;;;19.83;6.20;;;7.00;99.90;;;;;;5012992;28;20035;-40
2023/01/14 02:14:09;;;;;;;17.23;3.80;;;7.00;99.90;;;;;;5017521;28;20042;-39
2023/01/14 02:16:41;;;;;;;15.52;3.70;;;7.00;99.90;;;;;;5013201;28;20043;-40
2023/01/14 02:19:34;;;;;;;18.73;3.72;;;7.00;99.90;;;;;;5009014;28;20034;-40
2023/01/14 02:22:37;;;;;;;18.33;4.13;;;7.00;99.90;;;;;;4981174;28;20137;-40
2023/01/14 02:25:32;;;;;;;20.25;3.78;;;7.00;99.90;;;;;;5015905;28;20049;-40
2023/01/14 02:28:16;;;;;;;13.50;3.83;;;7.00;99.90;;;;;;4984273;28;20396;-40
2023/01/14 02:31:00;;;;;;;11.68;3.13;;;7.00;99.90;;;;;;5006883;28;20080;-40
2023/01/14 02:33:29;;;;;;;;;;;7.00;99.90;;;;;;5018210;28;20534;-39
2023/01/14 02:36:06;;;;;;;9.98;3.28;;;7.00;99.90;;;;;;5010011;28;20614;-39
2023/01/14 02:38:55;;;;;;;20.38;3.47;;;7.00;99.90;;;;;;5018255;28;20070;-40
2023/01/14 02:44:29;;;;;;;13.63;2.88;;;7.00;99.90;;;;;;4995267;28;20053;-40
2023/01/14 02:47:03;;;;;;;12.88;2.92;;;7.00;99.90;;;;;;5008426;28;20534;-40
2023/01/14 02:49:33;;;;;;;12.65;3.22;;;7.00;99.90;;;;;;5012411;28;20134;-39
2023/01/14 02:51:59;;;;;;;11.48;3.33;;;7.00;99.90;;;;;;4997785;28;20400;-39
2023/01/14 02:54:26;;;;;;;12.02;3.10;;;7.00;99.90;;;;;;5010751;28;20034;-39
2023/01/14 02:56:56;;;;;;;12.88;2.80;;;7.00;99.90;;;;;;5001946;28;20045;-40
2023/01/14 02:59:38;;;;;;;19.08;3.75;;;7.00;99.90;;;;;;5005205;28;20069;-39
2023/01/14 03:02:14;;;;;;;12.15;2.88;;;7.00;99.90;;;;;;5010856;28;20042;-39
2023/01/14 03:04:59;;;;;;;13.82;3.60;;;7.00;99.90;;;;;;4992968;28;20096;-39
2023/01/14 03:07:43;;;;;;;11.63;2.58;;;6.90;99.90;;;;;;5009457;28;20046;-40
2023/01/14 03:10:28;;;;;;;12.80;2.53;;;6.90;99.90;;;;;;5009514;28;20041;-40
2023/01/14 03:13:22;;;;;;;11.77;2.60;;;6.90;99.90;;;;;;5015689;28;20038;-40
2023/01/14 03:15:53;;;;;;;16.23;2.85;;;6.80;99.90;;;;;;5000089;28;20060;-40
2023/01/14 03:18:38;;;;;;;15.20;3.10;;;6.70;99.90;;;;;;5014513;28;20099;-40
2023/01/14 03:21:20;;;;;;;15.63;2.83;;;6.60;99.90;;;;;;5007290;28;20123;-39
2023/01/14 03:23:54;;;;;;;11.10;2.67;;;6.60;99.90;;;;;;5009279;28;20049;-40
2023/01/14 03:26:24;;;;;;;12.90;2.83;;;6.50;99.90;;;;;;4996799;28;20077;-39
2023/01/14 03:28:50;;;;;;;12.77;2.67;;;6.40;99.90;;;;;;5005126;28;20041;-39
2023/01/14 03:31:22;;;;;;;13.38;3.00;;;6.30;99.90;;;;;;4994792;28;20034;-39
2023/01/14 03:34:01;;;;;;;12.95;3.22;;;6.30;99.90;;;;;;5023095;28;20038;-40
2023/01/14 03:36:30;;;;;;;15.98;3.33;;;6.30;99.90;;;;;;4998917;28;20076;-40
2023/01/14 03:39:00;;;;;;;18.98;3.08;;;6.20;99.90;;;;;;5013934;28;20042;-39
2023/01/14 03:44:29;;;;;;;15.95;3.10;;;6.20;99.90;;;;;;4993663;28;20049;-39
2023/01/14 03:46:55;;;;;;;14.38;2.95;;;6.10;99.90;;;;;;5020590;28;20074;-40
2023/01/14 03:49:22;;;;;;;17.08;3.00;;;6.10;99.90;;;;;;5016693;28;20037;-40
2023/01/14 03:52:15;;;;;;;16.27;2.67;;;6.10;99.90;;;;;;4996559;28;20507;-39
2023/01/14 03:55:08;;;;;;;13.03;2.67;;;6.10;99.90;;;;;;4981443;28;20044;-40
2023/01/14 03:58:20;;;;;;;13.70;3.05;;;6.10;99.90;;;;;;4996741;28;20300;-40
2023/01/14 04:00:52;;;;;;;14.93;3.03;;;6.10;99.90;;;;;;4943780;28;20054;-40
2023/01/14 04:03:19;;;;;;;14.98;2.72;;;6.10;99.90;;;;;;5018469;28;20041;-39
2023/01/14 04:05:46;;;;;;;11.30;3.15;;;6.10;99.90;;;;;;5010273;28;20054;-40
2023/01/14 04:08:11;;;;;;;10.48;2.70;;;6.10;99.90;;;;;;5018584;28;20030;-40
2023/01/14 04:10:37;;;;;;;13.75;2.90;;;6.10;99.90;;;;;;5015006;28;20562;-39
2023/01/14 04:15:47;;;;;;;13.30;2.85;;;6.00;99.90;;;;;;4999279;28;20092;-39
2023/01/14 04:18:13;;;;;;;16.25;3.10;;;6.00;99.90;;;;;;5016378;28;20394;-39
2023/01/14 04:20:38;;;;;;;14.45;3.30;;;6.00;99.90;;;;;;4997429;28;20089;-40
2023/01/14 04:23:04;;;;;;;13.38;2.92;;;6.00;99.90;;;;;;4999406;28;20034;-40
2023/01/14 04:25:30;;;;;;;17.63;3.50;;;6.00;99.90;;;;;;5016619;28;20030;-40
2023/01/14 04:27:56;;;;;;;18.55;4.07;;;6.00;99.90;;;;;;4999864;28;20172;-39
2023/01/14 04:30:21;;;;;;;16.25;3.78;;;6.00;99.90;;;;;;5012851;28;20077;-39
2023/01/14 04:32:47;;;;;;;19.75;3.88;;;6.00;99.90;;;;;;4995507;28;20034;-41
2023/01/14 04:35:13;;;;;;;19.38;3.92;;;6.00;99.90;;;;;;5018097;28;20046;-40
2023/01/14 04:37:39;;;;;;;13.77;3.55;;;6.00;99.90;;;;;;5016641;28;20041;-40
2023/01/14 04:40:05;;;;;;;19.63;4.25;;;6.00;99.90;;;;;;5013310;28;20053;-39
2023/01/14 04:42:31;;;;;;;19.23;4.22;;;6.00;99.90;;;;;;5000420;28;20441;-39
2023/01/14 04:45:00;;;;;;;21.17;4.80;;;6.00;99.90;;;;;;5015200;28;20058;-40
2023/01/14 04:47:27;;;;;;;16.75;4.28;;;6.00;99.90;;;;;;5021146;28;20049;-38
2023/01/14 04:49:53;;;;;;;13.55;3.63;;;5.90;99.90;;;;;;5013241;28;20042;-40
2023/01/14 04:52:19;;;;;;;20.05;4.15;;;5.90;99.90;;;;;;5017795;28;20114;-39
2023/01/14 04:54:45;;;;;;;14.68;3.72;;;5.90;99.90;;;;;;5008642;28;20034;-39
2023/01/14 04:57:11;;;;;;;19.15;4.38;;;5.90;99.90;;;;;;4993908;28;20034;-39
2023/01/14 04:59:37;;;;;;;15.68;4.85;;;5.80;99.90;;;;;;5008173;28;20423;-39
2023/01/14 05:02:03;;;;;;;20.40;4.28;;;5.80;99.90;;;;;;5015944;28;20080;-39
2023/01/14 05:04:30;;;;;;;19.73;4.10;;;5.80;99.90;;;;;;5014480;28;20457;-39
2023/01/14 05:06:56;;;;;;;17.98;4.22;;;5.80;99.90;;;;;;5019605;28;20041;-39
2023/01/14 05:09:22;;;;;;;17.80;3.85;;;5.80;99.90;;;;;;5013467;28;20030;-39
2023/01/14 05:11:48;;;;;;;19.20;4.43;;;5.80;99.90;;;;;;5017631;28;20034;-39
2023/01/14 05:14:14;;;;;;;17.08;3.47;;;5.80;99.90;;;;;;5008051;28;20499;-39
2023/01/14 05:16:40;;;;;;;20.08;3.97;;;5.80;99.90;;;;;;5009742;28;20097;-39
2023/01/14 05:19:05;;;;;;;17.20;4.40;;;5.80;99.90;;;;;;5004647;28;20052;-40
2023/01/14 05:21:31;;;;;;;21.08;5.03;;;5.70;99.90;;;;;;5012949;28;20078;-39
2023/01/14 05:23:57;;;;;;;24.80;4.85;;;5.70;99.90;;;;;;5011017;28;20042;-39
2023/01/14 05:26:22;;;;;;;18.13;4.40;;;5.70;99.90;;;;;;5013070;28;20407;-39
2023/01/14 05:28:48;;;;;;;16.55;4.68;;;5.80;99.90;;;;;;5002674;28;20121;-38
2023/01/14 05:31:14;;;;;;;16.45;4.60;;;5.80;99.90;;;;;;4998014;28;20045;-40
2023/01/14 05:33:40;;;;;;;13.32;4.60;;;5.70;99.90;;;;;;4994836;28;20081;-39
2023/01/14 05:36:06;;;;;;;18.40;5.18;;;5.70;99.90;;;;;;5004653;28;20034;-39
2023/01/14 05:38:32;;;;;;;27.80;6.50;;;5.70;99.90;;;;;;4999181;28;20161;-39
2023/01/14 05:40:57;;;;;;;22.90;5.75;;;5.70;99.90;;;;;;5002103;28;20073;-39
2023/01/14 05:46:13;;;;;;;;;;;5.70;99.90;;;;;;4990674;28;20045;-39
2023/01/14 05:48:39;;;;;;;23.90;5.25;;;5.60;99.90;;;;;;4994643;28;20011;-39
2023/01/14 05:51:05;;;;;;;23.58;6.13;;;5.60;99.90;;;;;;4979770;28;20522;-39
2023/01/14 05:53:32;;;;;;;24.35;6.47;;;5.60;99.90;;;;;;4994827;28;20030;-39
2023/01/14 05:55:59;;;;;;;24.08;5.38;;;5.60;99.90;;;;;;5012124;28;20039;-39
2023/01/14 05:58:26;;;;;;;23.25;6.07;;;5.60;99.90;;;;;;4989741;28;20041;-39
2023/01/14 06:06:28;;;;;;;17.92;4.78;;;5.50;99.90;;;;;;4994750;28;19974;-39
2023/01/14 06:09:01;;;;;;;29.70;6.32;;;5.60;99.90;;;;;;4993517;28;20130;-39
2023/01/14 06:11:29;;;;;;;15.23;5.18;;;5.50;99.90;;;;;;5004892;28;20396;-39
2023/01/14 06:13:57;;;;;;;23.92;5.78;;;5.50;99.90;;;;;;4994888;28;20047;-39
2023/01/14 06:16:27;;;;;;;28.70;6.80;;;5.60;99.90;;;;;;5008384;28;20038;-39
2023/01/14 06:18:53;;;;;;;23.48;6.20;;;5.60;99.90;;;;;;4993828;28;20474;-39
2023/01/14 06:21:22;;;;;;;23.98;7.43;;;5.60;99.90;;;;;;4992874;28;20042;-39
2023/01/14 06:23:48;;;;;;;32.00;7.22;;;5.60;99.90;;;;;;5006132;28;20045;-40
2023/01/14 06:26:17;;;;;;;27.70;8.15;;;5.60;99.90;;;;;;5007621;28;20430;-41
2023/01/14 06:28:44;;;;;;;26.15;6.78;;;5.60;99.90;;;;;;5006533;28;20043;-39
2023/01/14 06:31:13;;;;;;;27.05;6.25;;;5.60;99.90;;;;;;4976208;28;20033;-39
2023/01/14 06:33:39;;;;;;;31.20;7.25;;;5.60;99.90;;;;;;5006060;28;20041;-39
2023/01/14 06:36:07;;;;;;;25.38;6.32;;;5.60;99.90;;;;;;4993060;28;20177;-39
2023/01/14 06:38:33;;;;;;;23.63;6.75;;;5.60;99.90;;;;;;4976352;28;20039;-39
2023/01/14 06:41:00;;;;;;;27.38;7.50;;;5.60;99.90;;;;;;4991436;28;20042;-39
2023/01/14 06:43:26;;;;;;;21.63;6.10;;;5.70;99.90;;;;;;5007007;28;20484;-39
2023/01/14 06:45:55;;;;;;;25.95;6.75;;;5.60;99.90;;;;;;5008734;28;20104;-39
2023/01/14 06:48:21;;;;;;;24.63;6.00;;;5.70;99.90;;;;;;4992329;28;20038;-39
2023/01/14 06:50:47;;;;;;;30.02;5.88;;;5.60;99.90;;;;;;5010048;28;20038;-39
2023/01/14 06:53:13;;;;;;;28.17;6.05;;;5.70;99.90;;;;;;4993479;28;20037;-39
2023/01/14 06:55:39;;;;;;;23.50;6.13;;;5.70;99.90;;;;;;4993303;28;20484;-39
2023/01/14 06:58:04;;;;;;;26.17;5.40;;;5.70;99.90;;;;;;5010231;28;20030;-39
2023/01/14 07:00:30;;;;;;;24.67;6.13;;;5.70;99.90;;;;;;4990626;28;20048;-39
2023/01/14 07:02:56;;;;;;;35.72;6.30;;;5.80;99.90;;;;;;4994111;28;20125;-38
2023/01/14 07:05:22;;;;;;;27.05;6.47;;;5.80;99.90;;;;;;5007683;28;20067;-39
2023/01/14 07:07:49;;;;;;;26.95;6.13;;;5.80;99.90;;;;;;4992006;28;20038;-39
2023/01/14 07:10:16;;;;;;;31.33;6.75;;;5.80;99.90;;;;;;5007684;28;20037;-39
2023/01/14 07:12:47;;;;;;;26.30;6.22;;;5.80;99.90;;;;;;4990780;28;20039;-39
2023/01/14 07:15:14;;;;;;;27.88;5.45;;;5.80;99.90;;;;;;4973700;28;20305;-39
2023/01/14 07:17:40;;;;;;;25.50;5.75;;;5.80;99.90;;;;;;5007512;28;20041;-39
2023/01/14 07:20:08;;;;;;;29.02;6.63;;;5.80;99.90;;;;;;4995341;28;20084;-39
2023/01/14 07:22:34;;;;;;;25.58;5.78;;;5.80;99.90;;;;;;4990585;28;20046;-39
2023/01/14 07:25:01;;;;;;;22.45;6.22;;;5.80;99.90;;;;;;4993418;28;20176;-39
2023/01/14 07:27:28;;;;;;;22.52;5.00;;;5.80;99.90;;;;;;4991318;28;20034;-40
2023/01/14 07:29:53;;;;;;;28.55;7.78;;;5.80;99.90;;;;;;5009062;28;20430;-39
2023/01/14 07:32:19;;;;;;;20.08;5.18;;;5.90;99.90;;;;;;5007568;28;20038;-39
2023/01/14 07:34:45;;;;;;;25.52;5.35;;;5.90;99.90;;;;;;5009273;28;20045;-39
2023/01/14 07:37:10;;;;;;;20.10;5.25;;;5.90;99.90;;;;;;5007510;28;20253;-39
2023/01/14 07:39:36;;;;;;;25.58;5.70;;;5.90;99.90;;;;;;4993310;28;20038;-40
2023/01/14 07:42:02;;;;;;;21.67;6.30;;;5.90;99.90;;;;;;4994808;28;20034;-40
2023/01/14 07:44:28;;;;;;;26.13;5.38;;;5.90;99.90;;;;;;4991964;28;20049;-39
2023/01/14 07:46:54;;;;;;;26.25;5.65;;;5.90;99.90;;;;;;4977910;28;20072;-40
2023/01/14 07:49:21;;;;;;;24.77;6.65;;;5.90;99.90;;;;;;5037114;23;20061;-40
2023/01/14 07:51:47;;;;;;;22.20;5.47;;;6.00;99.90;;;;;;5024538;28;20044;-39
2023/01/14 07:54:13;;;;;;;22.50;5.68;;;6.00;99.90;;;;;;5046205;28;20038;-39
2023/01/14 07:56:38;;;;;;;26.33;6.10;;;6.00;99.90;;;;;;5027424;28;20092;-39
2023/01/14 07:59:04;;;;;;;26.90;6.38;;;6.00;99.90;;;;;;5029966;28;20067;-40
2023/01/14 08:01:30;;;;;;;20.08;5.35;;;6.00;99.90;;;;;;5029538;28;20506;-39
2023/01/14 08:03:57;;;;;;;26.10;5.57;;;6.10;99.90;;;;;;5018226;28;20033;-40
2023/01/14 08:06:24;;;;;;;22.23;4.88;;;6.00;99.90;;;;;;5029706;28;20363;-40
2023/01/14 08:08:49;;;;;;;18.52;5.03;;;6.10;99.90;;;;;;5027123;28;20041;-43
2023/01/14 08:11:15;;;;;;;22.85;4.95;;;6.10;99.90;;;;;;5021826;23;20092;-37
2023/01/14 08:13:41;;;;;;;19.13;5.50;;;6.10;99.90;;;;;;4995194;28;20039;-37
2023/01/14 08:16:09;;;;;;;25.73;5.40;;;6.20;99.90;;;;;;4994722;28;20097;-37
2023/01/14 08:29:45;;;;;;;22.45;4.82;;;6.10;99.90;;;;;;4978191;28;20077;-42
2023/01/14 08:32:13;;;;;;;20.23;5.28;;;6.10;99.90;;;;;;4990318;28;20046;-42
2023/01/14 08:34:38;;;;;;;26.58;5.88;;;6.10;99.90;;;;;;4988345;28;20034;-44
2023/01/14 08:37:06;;;;;;;29.30;5.65;;;6.10;99.90;;;;;;5005239;28;20037;-41
2023/01/14 08:39:32;;;;;;;22.02;4.57;;;6.10;99.90;;;;;;4975306;28;20038;-41
2023/01/14 08:41:59;;;;;;;17.67;4.55;;;6.20;99.90;;;;;;4987028;28;20137;-43
2023/01/14 08:44:25;;;;;;;23.83;4.75;;;6.10;99.90;;;;;;4989428;28;20034;-42
2023/01/14 08:46:51;;;;;;;24.63;5.00;;;6.10;99.90;;;;;;4988341;28;20514;-42
2023/01/14 08:49:17;;;;;;;18.85;4.35;;;6.20;99.90;;;;;;4989072;28;20077;-44
2023/01/14 08:51:42;;;;;;;21.55;4.10;;;6.10;99.90;;;;;;4989359;28;20117;-40
2023/01/14 08:54:08;;;;;;;21.25;5.00;;;6.20;99.90;;;;;;4973491;28;20034;-41
2023/01/14 08:56:34;;;;;;;19.60;4.20;;;6.20;99.90;;;;;;4995878;28;20047;-39
2023/01/14 08:59:01;;;;;;;22.10;5.00;;;6.20;99.90;;;;;;4996156;28;20049;-41
2023/01/14 09:01:29;;;;;;;24.75;5.30;;;6.20;99.90;;;;;;4992067;28;20066;-39
2023/01/14 09:03:57;;;;;;;23.55;4.40;;;6.20;99.90;;;;;;4988523;28;20034;-38
2023/01/14 09:06:24;;;;;;;16.83;5.43;;;6.20;99.90;;;;;;4989655;28;20039;-39
2023/01/14 09:17:15;;;;;;;22.58;4.95;;;6.20;99.90;;;;;;4981001;28;20053;-43
2023/01/14 09:19:56;;;;;;;19.45;4.32;;;6.20;99.90;;;;;;4984993;28;20495;-42
2023/01/14 09:22:28;;;;;;;17.33;4.30;;;6.20;99.90;;;;;;4983226;28;20133;-45
2023/01/14 09:24:55;;;;;;;17.33;4.80;;;6.30;99.90;;;;;;4981390;28;20109;-47
2023/01/14 09:27:22;;;;;;;15.20;4.60;;;6.30;99.90;;;;;;4982728;28;20455;-43
2023/01/14 09:29:48;;;;;;;16.52;4.53;;;6.30;99.90;;;;;;4988266;28;20126;-44
2023/01/14 09:32:18;;;;;;;13.55;4.07;;;6.30;99.90;;;;;;4994638;28;20484;-46
2023/01/14 09:34:52;;;;;;;15.07;4.03;;;6.40;99.90;;;;;;4988982;28;20031;-42
2023/01/14 09:37:23;;;;;;;15.88;4.72;;;6.40;99.90;;;;;;5002879;28;20125;-43
2023/01/14 09:39:50;;;;;;;12.57;4.45;;;6.40;99.90;;;;;;4994070;28;20038;-45
2023/01/14 09:42:41;;;;;;;13.73;4.60;;;6.40;99.90;;;;;;4994603;28;20040;-43
2023/01/14 09:45:30;;;;;;;16.98;4.35;;;6.50;99.90;;;;;;4991200;28;20112;-45
2023/01/14 09:48:02;;;;;;;15.55;4.60;;;6.50;99.90;;;;;;4994260;28;20116;-44
2023/01/14 09:50:59;;;;;;;12.75;4.55;;;6.50;99.90;;;;;;5003806;28;20042;-43
2023/01/14 09:53:41;;;;;;;14.45;4.78;;;6.50;99.90;;;;;;5001872;28;20050;-48
2023/01/14 09:56:14;;;;;;;13.20;5.05;;;6.50;99.90;;;;;;4980855;28;20042;-44
2023/01/14 09:59:02;;;;;;;14.85;5.60;;;6.50;99.90;;;;;;4983826;28;20045;-43
2023/01/14 10:01:47;;;;;;;15.38;4.72;;;6.60;99.90;;;;;;5002681;28;20431;-41
2023/01/14 10:04:50;;;;;;;15.43;5.18;;;6.60;99.90;;;;;;4988352;28;20251;-41
2023/01/14 10:07:18;;;;;;;15.23;5.57;;;6.60;99.90;;;;;;5009550;28;20101;-38
2023/01/14 10:09:54;;;;;;;12.77;4.53;;;6.60;99.90;;;;;;4993297;28;20049;-38
2023/01/14 10:12:59;;;;;;;10.13;4.63;;;6.60;99.90;;;;;;4993664;28;20048;-38
2023/01/14 10:16:00;;;;;;;10.77;5.00;;;6.70;99.90;;;;;;4994495;28;20054;-38
2023/01/14 10:18:35;;;;;;;11.38;4.75;;;6.70;99.90;;;;;;4993197;28;20094;-38
2023/01/14 10:21:12;;;;;;;12.98;5.35;;;6.70;99.90;;;;;;4993351;28;20077;-37
2023/01/14 10:23:41;;;;;;;13.68;5.20;;;6.70;99.90;;;;;;4993335;28;20044;-38
2023/01/14 10:26:19;;;;;;;11.27;5.78;;;6.70;99.90;;;;;;4993945;28;20034;-37
2023/01/14 10:28:51;;;;;;;11.80;6.75;;;6.70;99.90;;;;;;4987268;28;20044;-38
2023/01/14 10:31:29;;;;;;;12.13;5.82;;;6.80;99.90;;;;;;4975189;28;20113;-38
2023/01/14 10:33:58;;;;;;;10.65;5.68;;;6.70;99.90;;;;;;4990113;28;20483;-37
2023/01/14 10:36:31;;;;;;;15.18;7.50;;;6.80;99.90;;;;;;4993848;28;20042;-44
2023/01/14 10:39:01;;;;;;;14.90;6.57;;;6.80;99.90;;;;;;5003491;28;20035;-44
2023/01/14 10:44:24;;;;;;;18.80;7.72;;;6.90;99.90;;;;;;4989474;28;20105;-44
2023/01/14 10:46:59;;;;;;;11.60;6.30;;;6.90;99.90;;;;;;4981704;28;20137;-43
2023/01/14 10:49:37;;;;;;;8.75;5.20;;;6.90;99.90;;;;;;4956629;28;20053;-45
2023/01/14 10:52:21;;;;;;;13.25;4.88;;;6.90;99.90;;;;;;4998279;28;20035;-42
2023/01/14 10:55:13;;;;;;;13.40;5.50;;;7.00;99.90;;;;;;5005031;28;20041;-46
2023/01/14 10:58:13;;;;;;;7.32;4.85;;;7.00;99.90;;;;;;4989349;28;20042;-43
2023/01/14 11:00:44;;;;;;;11.05;5.20;;;7.00;99.90;;;;;;4986539;28;20053;-44
2023/01/14 11:03:22;;;;;;;10.98;5.22;;;7.10;99.90;;;;;;4990581;28;20487;-43
2023/01/14 11:05:56;;;;;;;9.18;4.13;;;7.10;99.90;;;;;;4994696;28;20038;-42
2023/01/14 11:08:35;;;;;;;10.52;4.53;;;7.20;99.90;;;;;;4991641;28;20125;-42
2023/01/14 11:11:08;;;;;;;10.32;5.10;;;7.20;99.90;;;;;;4991419;28;20078;-43
2023/01/14 11:13:41;;;;;;;8.40;4.10;;;7.30;99.90;;;;;;4995940;28;20034;-43
2023/01/14 11:16:25;;;;;;;11.30;4.63;;;7.30;99.90;;;;;;5002437;28;20117;-43
2023/01/14 11:19:00;;;;;;;8.77;3.85;;;7.30;99.90;;;;;;5002095;28;20492;-45
2023/01/14 11:21:27;;;;;;;4.75;3.80;;;7.30;99.90;;;;;;4994848;28;20042;-43
2023/01/14 11:24:06;;;;;;;11.27;3.00;;;7.40;99.90;;;;;;4993099;28;20045;-41
2023/01/14 11:26:37;;;;;;;6.38;2.83;;;7.40;99.90;;;;;;4989504;28;20376;-41
2023/01/14 11:29:12;;;;;;;6.82;3.40;;;7.40;99.90;;;;;;4980740;28;20074;-42
2023/01/14 11:31:38;;;;;;;6.07;3.40;;;7.40;99.90;;;;;;5008710;28;20038;-42
2023/01/14 11:34:18;;;;;;;7.43;3.90;;;7.40;99.90;;;;;;4991707;28;20116;-41
2023/01/14 11:36:46;;;;;;;6.38;3.45;;;7.40;99.90;;;;;;4973350;28;20289;-42
2023/01/14 11:39:18;;;;;;;8.25;4.38;;;7.40;99.90;;;;;;4980837;28;20547;-40
2023/01/14 11:41:44;;;;;;;8.00;3.60;;;7.40;99.90;;;;;;4990717;28;20122;-40
2023/01/14 11:44:10;;;;;;;10.45;3.42;;;7.40;99.90;;;;;;4990786;28;20069;-43
2023/01/14 11:46:41;;;;;;;9.27;3.70;;;7.40;99.90;;;;;;4989614;28;20042;-41
2023/01/14 11:49:21;;;;;;;6.47;3.30;;;7.40;99.90;;;;;;4990949;28;20403;-40
2023/01/14 11:52:01;;;;;;;6.53;3.55;;;7.40;99.90;;;;;;4990287;28;20039;-40
2023/01/14 11:54:36;;;;;;;5.38;3.08;;;7.40;99.90;;;;;;4997429;28;20076;-38
2023/01/14 11:57:16;;;;;;;6.15;3.53;;;7.50;99.90;;;;;;4998289;28;20443;-38
2023/01/14 11:59:44;;;;;;;6.22;4.10;;;7.50;99.90;;;;;;4997407;28;20046;-39
2023/01/14 12:02:30;;;;;;;7.13;3.60;;;7.50;99.90;;;;;;4981201;28;20104;-39
2023/01/14 12:05:13;;;;;;;9.52;4.57;;;7.50;99.90;;;;;;4997977;28;20054;-43
2023/01/14 12:07:59;;;;;;;8.13;4.63;;;7.60;99.90;;;;;;4996082;28;20034;-39
2023/01/14 12:10:36;;;;;;;8.38;4.55;;;7.60;99.90;;;;;;4982482;28;20065;-40
2023/01/14 12:19:22;;;;;;;9.30;4.05;;;7.60;99.90;;;;;;4984534;28;20057;-39
2023/01/14 12:21:54;;;;;;;6.97;3.78;;;7.70;99.90;;;;;;4997578;28;20050;-39
2023/01/14 12:24:29;;;;;;;4.70;3.30;;;7.70;99.90;;;;;;4997198;28;20052;-40
2023/01/14 12:26:56;;;;;;;6.72;4.22;;;7.70;99.90;;;;;;4998049;28;20031;-42
2023/01/14 12:29:46;;;;;;;8.00;3.90;;;7.70;99.90;;;;;;4996985;28;20042;-39
2023/01/14 12:32:22;;;;;;;5.95;3.30;;;7.70;99.90;;;;;;4998689;28;20050;-39
2023/01/14 12:34:56;;;;;;;7.78;4.07;;;7.80;99.90;;;;;;4997409;28;20042;-39
2023/01/14 12:37:39;;;;;;;5.20;3.28;;;7.80;99.90;;;;;;4997936;28;20042;-39
2023/01/14 12:46:12;;;;;;;9.00;3.83;;;7.80;99.90;;;;;;4996590;28;20073;-39
2023/01/14 12:48:39;;;;;;;5.65;3.00;;;7.80;99.90;;;;;;4995326;28;20121;-39
2023/01/14 12:51:18;;;;;;;5.75;3.35;;;7.90;99.90;;;;;;4996549;28;20096;-39
2023/01/14 12:53:47;;;;;;;5.10;2.78;;;7.90;99.90;;;;;;4996740;28;20262;-43
2023/01/14 12:56:49;;;;;;;4.90;2.80;;;8.00;99.90;;;;;;4997607;28;20042;-40
2023/01/14 12:59:29;;;;;;;4.07;2.83;;;8.00;99.90;;;;;;4995352;28;20162;-41
2023/01/14 13:02:08;;;;;;;5.30;3.13;;;8.10;99.90;;;;;;4994982;28;20454;-42
2023/01/14 13:04:45;;;;;;;6.82;3.72;;;8.10;99.90;;;;;;5011912;28;20049;-39
2023/01/14 13:07:20;;;;;;;7.40;3.20;;;8.10;99.90;;;;;;4989867;28;20090;-40
2023/01/14 13:09:52;;;;;;;6.53;3.00;;;8.10;99.90;;;;;;4976194;28;20046;-39
2023/01/14 13:12:33;;;;;;;3.95;3.10;;;8.20;99.90;;;;;;4988119;28;20128;-41
2023/01/14 13:15:26;;;;;;;5.90;3.40;;;8.20;99.90;;;;;;4995620;28;20396;-39
2023/01/14 13:18:04;;;;;;;8.02;3.85;;;8.20;99.90;;;;;;4987299;28;20141;-40
2023/01/14 13:20:35;;;;;;;6.00;3.00;;;8.30;99.90;;;;;;4995707;28;20396;-39
2023/01/14 13:23:02;;;;;;;4.82;3.33;;;8.30;99.90;;;;;;4995794;28;20491;-40
2023/01/14 13:25:41;;;;;;;5.07;3.00;;;8.40;99.90;;;;;;4996785;28;20054;-40
2023/01/14 13:28:11;;;;;;;3.95;2.67;;;8.40;99.90;;;;;;4996950;28;20217;-40
2023/01/14 13:31:21;;;;;;;4.85;3.17;;;8.40;99.90;;;;;;4980875;28;20050;-39
2023/01/14 13:34:28;;;;;;;3.05;2.45;;;8.50;99.90;;;;;;4977802;28;20435;-41
2023/01/14 13:37:00;;;;;;;4.43;2.92;;;8.60;99.90;;;;;;5009581;28;20515;-39
2023/01/14 13:39:27;;;;;;;4.40;2.00;;;8.60;99.90;;;;;;4993536;28;20628;-41
2023/01/14 13:41:58;;;;;;;4.80;3.25;;;8.70;99.90;;;;;;4977078;28;20047;-40
2023/01/14 13:44:34;;;;;;;2.22;2.00;;;8.70;99.90;;;;;;4976698;28;20171;-39
2023/01/14 13:47:01;;;;;;;3.78;1.70;;;8.80;99.90;;;;;;4977380;28;20118;-41
2023/01/14 13:49:50;;;;;;;4.55;3.15;;;8.80;99.90;;;;;;4977041;28;20047;-39
2023/01/14 13:52:25;;;;;;;4.93;3.90;;;8.90;99.90;;;;;;4977736;28;20559;-41
2023/01/14 13:55:19;;;;;;;2.17;1.65;;;8.90;99.90;;;;;;4984942;28;20071;-41
2023/01/14 13:57:51;;;;;;;2.10;1.60;;;8.90;99.90;;;;;;4996995;28;20038;-44
2023/01/14 14:00:17;;;;;;;3.72;2.88;;;9.00;99.90;;;;;;4996624;28;20391;-41
2023/01/14 14:02:45;;;;;;;2.50;2.30;;;9.00;99.90;;;;;;4979745;28;20579;-39
2023/01/14 14:05:24;;;;;;;3.33;2.90;;;9.00;99.90;;;;;;4996051;28;20046;-41